createdAt,value
2023-04-18T00:02:15.372Z,7.16
2023-04-18T00:04:46.417Z,7.11
2023-04-18T00:07:17.797Z,7.00
2023-04-18T00:09:45.675Z,6.91
2023-04-18T00:12:14.403Z,6.87
2023-04-18T00:14:43.829Z,6.83
2023-04-18T00:17:13.287Z,6.79
2023-04-18T00:19:43.382Z,6.74
2023-04-18T00:22:11.696Z,6.76
2023-04-18T00:24:40.572Z,6.70
2023-04-18T00:27:08.501Z,6.70
2023-04-18T00:29:36.356Z,6.69
2023-04-18T00:32:04.291Z,6.60
2023-04-18T00:34:32.142Z,6.58
2023-04-18T00:37:00.125Z,6.50
2023-04-18T00:39:28.277Z,6.49
2023-04-18T00:41:56.347Z,6.49
2023-04-18T00:44:24.174Z,6.46
2023-04-18T00:46:52.067Z,6.45
2023-04-18T00:49:20.392Z,6.42
2023-04-18T00:51:49.312Z,6.36
2023-04-18T00:54:18.899Z,6.36
2023-04-18T00:56:47.101Z,6.38
2023-04-18T00:59:16.751Z,6.35
2023-04-18T01:01:45.137Z,6.32
2023-04-18T01:04:13.969Z,6.24
2023-04-18T14:22:30.486Z,13.70
2023-04-18T14:25:03.067Z,13.71
2023-04-18T14:27:38.162Z,13.40
2023-04-18T14:30:09.725Z,13.36
2023-04-18T14:32:41.217Z,13.30
2023-04-18T14:35:11.307Z,13.25
2023-04-18T14:37:44.128Z,13.35
2023-04-18T14:40:12.777Z,13.56
2023-04-18T14:42:41.569Z,13.57
2023-04-18T14:45:11.391Z,13.69
2023-04-18T14:47:39.605Z,13.98
2023-04-18T14:50:08.847Z,14.10
2023-04-18T14:52:36.838Z,13.95
2023-04-18T14:55:05.990Z,13.78
2023-04-18T14:57:38.326Z,13.84
2023-04-18T15:00:11.372Z,13.84
2023-04-18T15:02:40.090Z,13.97
2023-04-18T15:05:09.241Z,14.00
2023-04-18T15:07:37.975Z,14.07
2023-04-18T15:10:06.595Z,14.15
2023-04-18T15:12:35.057Z,14.30
2023-04-18T15:15:03.203Z,14.35
2023-04-18T15:17:31.194Z,14.40
2023-04-18T15:20:02.405Z,14.46
2023-04-18T15:22:30.456Z,14.56
2023-04-18T15:24:58.477Z,14.59
2023-04-18T15:27:26.654Z,14.30
2023-04-18T15:29:54.927Z,14.18
2023-04-18T15:32:23.300Z,14.14
2023-04-18T15:34:51.531Z,14.05
2023-04-18T15:37:19.711Z,14.10
2023-04-18T15:39:47.770Z,13.97
2023-04-18T15:42:15.659Z,14.08
2023-04-18T15:44:43.582Z,14.00
2023-04-18T15:47:11.608Z,14.05
2023-04-18T15:49:39.649Z,14.04
2023-04-18T15:52:08.381Z,14.00
2023-04-18T15:54:41.143Z,14.15
2023-04-18T15:57:10.331Z,14.29
2023-04-18T15:59:38.388Z,14.35
2023-04-18T16:02:07.349Z,14.29
2023-04-18T16:04:35.421Z,14.28
2023-04-18T16:07:03.532Z,14.28
2023-04-18T16:09:34.661Z,14.26
2023-04-18T16:12:05.889Z,14.25
2023-04-18T16:14:36.339Z,14.24
2023-04-18T16:17:04.801Z,14.02
2023-04-18T16:19:35.067Z,13.94
2023-04-18T16:22:07.162Z,13.77
2023-04-18T16:24:35.369Z,13.76
2023-04-18T16:27:03.750Z,13.80
2023-04-18T16:29:31.855Z,13.88
2023-04-18T16:31:59.826Z,13.97
2023-04-18T16:34:27.789Z,13.98
2023-04-18T16:36:55.828Z,14.17
2023-04-18T16:39:23.735Z,14.26
2023-04-18T16:41:51.652Z,14.30
2023-04-18T16:44:19.726Z,14.26
2023-04-18T16:46:47.867Z,14.21
2023-04-18T16:49:18.988Z,14.07
2023-04-18T16:51:47.452Z,14.02
2023-04-18T16:54:16.105Z,14.05
2023-04-18T16:56:47.252Z,14.04
2023-04-18T16:59:16.078Z,14.11
2023-04-18T17:01:44.436Z,14.18
2023-04-18T17:04:12.973Z,14.05
2023-04-18T17:06:43.238Z,13.88
2023-04-18T17:09:15.022Z,13.78
2023-04-18T17:11:44.820Z,13.81
2023-04-18T17:14:13.634Z,13.84
2023-04-18T17:16:42.585Z,13.93
2023-04-18T17:19:11.471Z,13.97
2023-04-18T17:21:40.202Z,13.98
2023-04-18T17:24:13.776Z,13.94
2023-04-18T17:26:42.135Z,13.87
2023-04-18T17:29:10.539Z,13.78
2023-04-18T17:31:39.204Z,13.67
2023-04-18T17:34:10.254Z,13.57
2023-04-18T17:36:39.156Z,13.49
2023-04-18T17:39:07.428Z,13.43
2023-04-18T17:41:39.101Z,13.34
2023-04-18T17:44:07.823Z,13.28
2023-04-18T17:46:36.541Z,13.21
2023-04-18T17:49:04.746Z,13.22
2023-04-18T17:51:32.996Z,13.19
2023-04-18T17:54:00.994Z,13.15
2023-04-18T17:56:30.515Z,13.12
2023-04-18T17:58:58.740Z,13.11
2023-04-18T18:01:30.155Z,13.08
2023-04-18T18:03:58.320Z,13.11
2023-04-18T18:06:27.854Z,13.11
2023-04-18T18:08:55.958Z,13.12
2023-04-18T18:11:24.038Z,13.07
2023-04-18T18:13:54.823Z,12.94
2023-04-18T18:16:24.598Z,12.84
2023-04-18T18:18:54.296Z,12.81
2023-04-18T18:21:22.862Z,12.80
2023-04-18T18:23:51.034Z,12.72
2023-04-18T18:26:19.212Z,12.66
2023-04-18T18:28:47.480Z,12.59
2023-04-18T18:31:16.828Z,12.45
2023-04-18T18:33:44.874Z,12.40
2023-04-18T18:36:12.846Z,12.29
2023-04-18T18:38:40.906Z,12.17
2023-04-18T18:41:09.273Z,12.08
2023-04-18T18:43:37.570Z,11.99
2023-04-18T18:46:05.691Z,11.90
2023-04-18T18:48:36.907Z,11.80
2023-04-18T18:51:05.156Z,11.66
2023-04-18T18:53:33.115Z,11.59
2023-04-18T18:56:01.515Z,11.53
2023-04-18T18:58:29.552Z,11.49
2023-04-18T19:00:58.938Z,11.46
2023-04-18T19:03:27.228Z,11.36
2023-04-18T19:05:56.537Z,11.33
2023-04-18T19:08:24.948Z,11.23
2023-04-18T19:10:53.348Z,11.19
2023-04-18T19:13:25.192Z,11.12
2023-04-18T19:15:53.293Z,11.05
2023-04-18T19:18:21.548Z,10.98
2023-04-18T19:20:50.395Z,10.91
2023-04-18T19:23:19.563Z,10.85
2023-04-18T19:25:47.666Z,10.88
2023-04-18T19:28:18.167Z,10.87
2023-04-18T19:30:46.737Z,10.85
2023-04-18T19:33:14.982Z,10.78
2023-04-18T19:35:43.180Z,10.74
2023-04-18T19:38:11.198Z,10.67
2023-04-18T19:40:39.471Z,10.64
2023-04-18T19:43:07.460Z,10.60
2023-04-18T19:45:35.991Z,10.59
2023-04-18T19:48:04.165Z,10.59
2023-04-18T19:50:32.446Z,10.53
2023-04-18T19:53:00.575Z,10.56
2023-04-18T19:55:28.684Z,10.49
2023-04-18T19:57:56.855Z,10.50
2023-04-18T20:00:25.096Z,10.42
2023-04-18T20:02:56.705Z,10.35
2023-04-18T20:05:24.912Z,10.26
2023-04-18T20:07:53.219Z,10.22
2023-04-18T20:10:22.413Z,10.19
2023-04-18T20:12:50.483Z,10.12
2023-04-18T20:15:18.659Z,10.08
2023-04-18T20:17:50.663Z,10.02
2023-04-18T20:20:18.829Z,9.98
2023-04-18T20:22:48.102Z,9.98
2023-04-18T20:25:16.558Z,9.94
2023-04-18T20:27:45.641Z,9.93
2023-04-18T20:30:14.163Z,9.87
2023-04-18T20:32:43.037Z,9.84
2023-04-18T20:35:11.389Z,9.84
2023-04-18T20:37:41.887Z,9.80
2023-04-18T20:40:10.578Z,9.77
2023-04-18T20:42:39.457Z,9.77
2023-04-18T20:45:11.435Z,9.70
2023-04-18T20:47:56.345Z,9.64
2023-04-18T20:50:34.214Z,9.58
2023-04-18T20:53:05.761Z,9.54
2023-04-18T20:55:34.031Z,9.49
2023-04-18T20:58:02.537Z,9.43
2023-04-18T21:00:31.948Z,9.44
2023-04-18T21:03:00.274Z,9.40
2023-04-18T21:05:29.038Z,9.35
2023-04-18T21:07:59.868Z,9.35
2023-04-18T21:10:28.002Z,9.29
2023-04-18T21:12:56.620Z,9.21
2023-04-18T21:15:33.347Z,9.22
2023-04-18T21:18:06.421Z,9.14
2023-04-18T21:20:39.550Z,9.11
2023-04-18T21:23:10.600Z,9.10
2023-04-18T21:25:39.562Z,9.07
2023-04-18T21:28:08.661Z,9.08
2023-04-18T21:30:37.444Z,9.07
2023-04-18T21:33:09.533Z,9.02
2023-04-18T21:35:37.821Z,9.02
2023-04-18T21:38:09.141Z,8.98
2023-04-18T21:40:39.825Z,8.95
2023-04-18T21:43:07.892Z,8.92
2023-04-18T21:45:35.874Z,8.89
2023-04-18T21:48:05.291Z,8.83
2023-04-18T21:50:34.248Z,8.83
2023-04-18T21:53:10.876Z,8.80
2023-04-18T21:55:41.711Z,8.74
2023-04-18T22:01:01.264Z,8.61
2023-04-18T22:03:30.056Z,8.56
2023-04-18T22:05:58.932Z,8.54
2023-04-18T22:08:27.054Z,8.53
2023-04-18T22:10:56.505Z,8.52
2023-04-18T22:13:26.001Z,8.47
2023-04-18T22:15:53.985Z,8.43
2023-04-18T22:18:21.924Z,8.38
2023-04-18T22:20:50.901Z,8.33
2023-04-18T22:23:18.850Z,8.29
2023-04-18T22:25:47.069Z,8.24
2023-04-18T22:28:15.307Z,8.24
2023-04-18T22:30:43.941Z,8.21
2023-04-18T22:33:12.076Z,8.13
2023-04-18T22:35:40.052Z,8.11
2023-04-18T22:38:08.032Z,8.09
2023-04-18T22:40:36.184Z,8.16
2023-04-18T22:43:04.157Z,8.18
2023-04-18T22:45:33.349Z,8.16
2023-04-18T22:48:04.700Z,8.18
2023-04-18T22:50:32.822Z,8.16
2023-04-18T22:53:00.868Z,8.18
2023-04-18T22:55:28.843Z,8.13
2023-04-18T22:57:57.325Z,8.09
2023-04-18T23:00:25.473Z,8.08
2023-04-18T23:02:53.728Z,8.04
2023-04-18T23:05:24.170Z,7.98
2023-04-18T23:07:52.161Z,7.90
2023-04-18T23:10:20.682Z,7.87
2023-04-18T23:12:48.735Z,7.83
2023-04-18T23:15:16.755Z,7.78
2023-04-18T23:17:44.751Z,7.75
2023-04-18T23:20:13.758Z,7.78
2023-04-18T23:22:41.637Z,7.74
2023-04-18T23:25:09.927Z,7.71
2023-04-18T23:27:37.856Z,7.70
2023-04-18T23:30:06.756Z,7.64
2023-04-18T23:32:35.773Z,7.62
2023-04-18T23:35:06.930Z,7.57
2023-04-18T23:37:35.041Z,7.59
2023-04-18T23:40:06.837Z,7.59
2023-04-18T23:42:36.953Z,7.63
2023-04-18T23:45:05.976Z,7.60
2023-04-18T23:47:37.385Z,7.63
2023-04-18T23:50:05.721Z,7.60
2023-04-18T23:52:33.861Z,7.60
2023-04-18T23:55:02.396Z,7.59
2023-04-18T23:57:31.205Z,7.56
